sensor_id;sensor_type;location;lat;lon;timestamp;pressure;altitude;pressure_sealevel;temperature;humidity
45793;BME280;31495;42.740;22.908;2023-03-14T00:00:40;93286.78;;;0.44;63.51
45793;BME280;31495;42.740;22.908;2023-03-14T00:01:39;93296.75;;;0.55;63.13
45793;BME280;31495;42.740;22.908;2023-03-14T00:02:39;93293.44;;;0.54;62.89
45793;BME280;31495;42.740;22.908;2023-03-14T00:03:38;93277.78;;;0.49;62.92
45793;BME280;31495;42.740;22.908;2023-03-14T00:04:38;93265.06;;;0.31;63.09
45793;BME280;31495;42.740;22.908;2023-03-14T00:05:38;93303.38;;;0.48;63.02
45793;BME280;31495;42.740;22.908;2023-03-14T00:06:37;93262.56;;;0.22;63.17
45793;BME280;31495;42.740;22.908;2023-03-14T00:07:38;93304.31;;;0.47;62.88
45793;BME280;31495;42.740;22.908;2023-03-14T00:08:39;93298.72;;;0.43;63.17
45793;BME280;31495;42.740;22.908;2023-03-14T00:09:39;93284.78;;;0.20;63.47
45793;BME280;31495;42.740;22.908;2023-03-14T00:10:38;93304.31;;;0.29;63.73
45793;BME280;31495;42.740;22.908;2023-03-14T00:11:38;93269.75;;;0.08;63.88
45793;BME280;31495;42.740;22.908;2023-03-14T00:12:37;93294.91;;;0.29;63.89
45793;BME280;31495;42.740;22.908;2023-03-14T00:13:37;93300.00;;;0.29;63.89
45793;BME280;31495;42.740;22.908;2023-03-14T00:14:36;93271.41;;;0.17;63.67
45793;BME280;31495;42.740;22.908;2023-03-14T00:15:36;93286.28;;;0.40;63.51
45793;BME280;31495;42.740;22.908;2023-03-14T00:16:35;93273.13;;;0.27;63.39
45793;BME280;31495;42.740;22.908;2023-03-14T00:17:35;93263.13;;;0.15;63.33
45793;BME280;31495;42.740;22.908;2023-03-14T00:18:35;93295.44;;;0.33;63.68
45793;BME280;31495;42.740;22.908;2023-03-14T00:19:35;93248.72;;;0.06;63.49
45793;BME280;31495;42.740;22.908;2023-03-14T00:20:34;93271.13;;;0.21;63.55
45793;BME280;31495;42.740;22.908;2023-03-14T00:21:34;93239.50;;;0.05;63.25
45793;BME280;31495;42.740;22.908;2023-03-14T00:22:38;93282.41;;;0.36;63.51
45793;BME280;31495;42.740;22.908;2023-03-14T00:23:39;93274.19;;;0.24;63.94
45793;BME280;31495;42.740;22.908;2023-03-14T00:24:38;93250.47;;;0.06;64.20
45793;BME280;31495;42.740;22.908;2023-03-14T00:25:38;93255.66;;;0.14;64.11
45793;BME280;31495;42.740;22.908;2023-03-14T00:26:37;93216.72;;;-0.14;63.97
45793;BME280;31495;42.740;22.908;2023-03-14T00:27:37;93274.41;;;0.31;64.02
45793;BME280;31495;42.740;22.908;2023-03-14T00:28:37;93237.25;;;0.02;63.90
45793;BME280;31495;42.740;22.908;2023-03-14T00:29:37;93269.53;;;0.20;64.22
45793;BME280;31495;42.740;22.908;2023-03-14T00:30:37;93265.41;;;0.18;64.36
45793;BME280;31495;42.740;22.908;2023-03-14T00:31:36;93204.94;;;-0.15;64.10
45793;BME280;31495;42.740;22.908;2023-03-14T00:32:38;93261.47;;;0.24;63.78
45793;BME280;31495;42.740;22.908;2023-03-14T00:33:38;93238.25;;;0.09;63.69
45793;BME280;31495;42.740;22.908;2023-03-14T00:34:37;93264.66;;;0.26;63.58
45793;BME280;31495;42.740;22.908;2023-03-14T00:35:37;93222.41;;;-0.03;63.70
45793;BME280;31495;42.740;22.908;2023-03-14T00:36:37;93256.94;;;0.18;63.69
45793;BME280;31495;42.740;22.908;2023-03-14T00:37:36;93250.03;;;0.10;63.81
45793;BME280;31495;42.740;22.908;2023-03-14T00:38:37;93260.16;;;0.20;63.85
45793;BME280;31495;42.740;22.908;2023-03-14T00:39:36;93260.97;;;0.21;64.28
45793;BME280;31495;42.740;22.908;2023-03-14T00:40:38;93258.41;;;0.21;64.12
45793;BME280;31495;42.740;22.908;2023-03-14T00:41:38;93256.16;;;0.17;64.23
45793;BME280;31495;42.740;22.908;2023-03-14T00:42:37;93252.31;;;0.13;64.22
45793;BME280;31495;42.740;22.908;2023-03-14T00:43:37;93243.22;;;0.11;64.19
45793;BME280;31495;42.740;22.908;2023-03-14T00:44:36;93250.00;;;0.20;64.02
45793;BME280;31495;42.740;22.908;2023-03-14T00:45:36;93250.91;;;0.19;64.06
45793;BME280;31495;42.740;22.908;2023-03-14T00:46:36;93242.56;;;0.09;63.90
45793;BME280;31495;42.740;22.908;2023-03-14T00:47:35;93247.38;;;0.12;63.84
45793;BME280;31495;42.740;22.908;2023-03-14T00:48:35;93251.34;;;0.14;64.10
45793;BME280;31495;42.740;22.908;2023-03-14T00:49:35;93251.50;;;0.13;64.15
45793;BME280;31495;42.740;22.908;2023-03-14T00:50:35;93211.03;;;-0.08;64.01
45793;BME280;31495;42.740;22.908;2023-03-14T00:51:34;93235.22;;;0.06;63.98
45793;BME280;31495;42.740;22.908;2023-03-14T00:52:34;93257.25;;;0.15;64.21
45793;BME280;31495;42.740;22.908;2023-03-14T00:53:36;93249.91;;;0.12;64.31
45793;BME280;31495;42.740;22.908;2023-03-14T00:54:36;93256.72;;;0.11;64.34
45793;BME280;31495;42.740;22.908;2023-03-14T00:55:39;93200.78;;;-0.16;64.53
45793;BME280;31495;42.740;22.908;2023-03-14T00:56:39;93250.69;;;0.12;64.48
45793;BME280;31495;42.740;22.908;2023-03-14T00:57:38;93240.94;;;0.08;64.63
45793;BME280;31495;42.740;22.908;2023-03-14T00:58:38;93200.78;;;-0.16;64.38
45793;BME280;31495;42.740;22.908;2023-03-14T00:59:38;93237.66;;;-0.03;64.41
45793;BME280;31495;42.740;22.908;2023-03-14T01:00:38;93246.09;;;-0.02;64.57
45793;BME280;31495;42.740;22.908;2023-03-14T01:01:39;93238.38;;;-0.10;64.76
45793;BME280;31495;42.740;22.908;2023-03-14T01:02:38;93249.88;;;-0.06;64.91
45793;BME280;31495;42.740;22.908;2023-03-14T01:03:38;93239.69;;;-0.06;65.18
45793;BME280;31495;42.740;22.908;2023-03-14T01:04:37;93222.50;;;-0.22;64.94
45793;BME280;31495;42.740;22.908;2023-03-14T01:05:39;93234.19;;;-0.02;65.34
45793;BME280;31495;42.740;22.908;2023-03-14T01:06:39;93235.41;;;-0.06;65.18
45793;BME280;31495;42.740;22.908;2023-03-14T01:07:39;93210.44;;;-0.20;65.43
45793;BME280;31495;42.740;22.908;2023-03-14T01:08:38;93220.06;;;-0.14;65.35
45793;BME280;31495;42.740;22.908;2023-03-14T01:09:38;93235.69;;;-0.09;65.53
45793;BME280;31495;42.740;22.908;2023-03-14T01:10:47;93230.47;;;-0.07;65.04
45793;BME280;31495;42.740;22.908;2023-03-14T01:11:46;93228.63;;;-0.15;64.93
45793;BME280;31495;42.740;22.908;2023-03-14T01:12:46;93236.78;;;-0.11;65.37
45793;BME280;31495;42.740;22.908;2023-03-14T01:13:46;93237.34;;;-0.17;65.50
45793;BME280;31495;42.740;22.908;2023-03-14T01:14:45;93218.41;;;-0.33;65.56
45793;BME280;31495;42.740;22.908;2023-03-14T01:15:44;93234.44;;;-0.23;65.52
45793;BME280;31495;42.740;22.908;2023-03-14T01:16:44;93194.13;;;-0.45;65.07
45793;BME280;31495;42.740;22.908;2023-03-14T01:17:43;93194.66;;;-0.42;65.36
45793;BME280;31495;42.740;22.908;2023-03-14T01:18:44;93231.97;;;-0.14;65.32
45793;BME280;31495;42.740;22.908;2023-03-14T01:19:44;93227.81;;;-0.15;65.58
45793;BME280;31495;42.740;22.908;2023-03-14T01:20:43;93183.41;;;-0.39;65.64
45793;BME280;31495;42.740;22.908;2023-03-14T01:21:43;93215.41;;;-0.19;65.57
45793;BME280;31495;42.740;22.908;2023-03-14T01:22:43;93222.09;;;-0.17;65.80
45793;BME280;31495;42.740;22.908;2023-03-14T01:23:43;93213.81;;;-0.20;65.91
45793;BME280;31495;42.740;22.908;2023-03-14T01:24:42;93206.47;;;-0.23;65.68
45793;BME280;31495;42.740;22.908;2023-03-14T01:25:42;93220.34;;;-0.17;65.70
45793;BME280;31495;42.740;22.908;2023-03-14T01:26:41;93178.75;;;-0.44;65.54
45793;BME280;31495;42.740;22.908;2023-03-14T01:27:41;93144.59;;;-0.69;65.19
45793;BME280;31495;42.740;22.908;2023-03-14T01:28:41;93211.41;;;-0.21;65.25
45793;BME280;31495;42.740;22.908;2023-03-14T01:29:40;93206.97;;;-0.19;65.01
45793;BME280;31495;42.740;22.908;2023-03-14T01:30:40;93186.88;;;-0.40;65.35
45793;BME280;31495;42.740;22.908;2023-03-14T01:31:39;93202.03;;;-0.21;65.08
45793;BME280;31495;42.740;22.908;2023-03-14T01:32:39;93193.66;;;-0.31;65.18
45793;BME280;31495;42.740;22.908;2023-03-14T01:33:39;93199.75;;;-0.24;65.18
45793;BME280;31495;42.740;22.908;2023-03-14T01:34:39;93202.81;;;-0.20;65.27
45793;BME280;31495;42.740;22.908;2023-03-14T01:35:39;93202.16;;;-0.22;65.34
45793;BME280;31495;42.740;22.908;2023-03-14T01:36:38;93204.19;;;-0.26;65.38
45793;BME280;31495;42.740;22.908;2023-03-14T01:37:38;93196.28;;;-0.23;65.21
45793;BME280;31495;42.740;22.908;2023-03-14T01:38:41;93172.03;;;-0.45;65.34
45793;BME280;31495;42.740;22.908;2023-03-14T01:39:41;93191.63;;;-0.27;65.31
45793;BME280;31495;42.740;22.908;2023-03-14T01:40:45;93200.47;;;-0.31;65.32
45793;BME280;31495;42.740;22.908;2023-03-14T01:41:46;93200.19;;;-0.28;65.52
45793;BME280;31495;42.740;22.908;2023-03-14T01:42:57;93192.00;;;-0.22;65.07
45793;BME280;31495;42.740;22.908;2023-03-14T01:43:57;93196.00;;;-0.20;64.92
45793;BME280;31495;42.740;22.908;2023-03-14T01:45:00;93188.44;;;-0.29;65.51
45793;BME280;31495;42.740;22.908;2023-03-14T01:47:06;93177.53;;;-0.49;65.56
45793;BME280;31495;42.740;22.908;2023-03-14T01:48:06;93167.69;;;-0.52;65.69
45793;BME280;31495;42.740;22.908;2023-03-14T01:49:15;93191.03;;;-0.39;65.55
45793;BME280;31495;42.740;22.908;2023-03-14T01:50:17;93079.97;;;-1.12;65.67
45793;BME280;31495;42.740;22.908;2023-03-14T01:51:30;93189.41;;;-0.40;65.64
45793;BME280;31495;42.740;22.908;2023-03-14T01:52:36;93177.28;;;-0.46;65.52
45793;BME280;31495;42.740;22.908;2023-03-14T01:53:41;93142.13;;;-0.79;65.81
45793;BME280;31495;42.740;22.908;2023-03-14T01:55:52;93175.59;;;-0.56;65.75
45793;BME280;31495;42.740;22.908;2023-03-14T01:58:08;93183.22;;;-0.56;66.15
45793;BME280;31495;42.740;22.908;2023-03-14T01:59:09;93195.78;;;-0.54;66.48
45793;BME280;31495;42.740;22.908;2023-03-14T02:00:13;93186.84;;;-0.58;66.14
45793;BME280;31495;42.740;22.908;2023-03-14T02:01:14;93194.28;;;-0.47;66.30
45793;BME280;31495;42.740;22.908;2023-03-14T02:02:16;93176.16;;;-0.62;66.44
45793;BME280;31495;42.740;22.908;2023-03-14T02:03:17;93187.75;;;-0.59;65.91
45793;BME280;31495;42.740;22.908;2023-03-14T02:04:20;93171.66;;;-0.78;66.33
45793;BME280;31495;42.740;22.908;2023-03-14T02:05:23;93174.44;;;-0.71;66.58
45793;BME280;31495;42.740;22.908;2023-03-14T02:06:31;93186.31;;;-0.62;66.68
45793;BME280;31495;42.740;22.908;2023-03-14T02:08:36;93191.03;;;-0.67;66.40
45793;BME280;31495;42.740;22.908;2023-03-14T02:09:38;93164.34;;;-0.90;66.37
45793;BME280;31495;42.740;22.908;2023-03-14T02:10:42;93188.47;;;-0.67;66.57
45793;BME280;31495;42.740;22.908;2023-03-14T02:11:44;93132.47;;;-1.03;66.66
45793;BME280;31495;42.740;22.908;2023-03-14T02:12:46;93197.41;;;-0.63;66.40
45793;BME280;31495;42.740;22.908;2023-03-14T02:13:46;93189.00;;;-0.63;66.40
45793;BME280;31495;42.740;22.908;2023-03-14T02:14:46;93189.09;;;-0.55;66.13
45793;BME280;31495;42.740;22.908;2023-03-14T02:15:48;93183.78;;;-0.62;66.40
45793;BME280;31495;42.740;22.908;2023-03-14T02:16:47;93160.56;;;-0.77;66.17
45793;BME280;31495;42.740;22.908;2023-03-14T02:17:47;93186.03;;;-0.59;66.22
45793;BME280;31495;42.740;22.908;2023-03-14T02:18:47;93160.94;;;-0.71;66.22
45793;BME280;31495;42.740;22.908;2023-03-14T02:21:54;93169.16;;;-0.87;67.28
45793;BME280;31495;42.740;22.908;2023-03-14T02:22:57;93182.47;;;-0.76;67.21
45793;BME280;31495;42.740;22.908;2023-03-14T02:26:19;93175.81;;;-0.77;66.99
45793;BME280;31495;42.740;22.908;2023-03-14T02:27:20;93171.44;;;-0.84;67.34
45793;BME280;31495;42.740;22.908;2023-03-14T02:28:21;93142.91;;;-1.06;66.93
45793;BME280;31495;42.740;22.908;2023-03-14T02:29:20;93157.00;;;-0.94;67.04
45793;BME280;31495;42.740;22.908;2023-03-14T02:30:25;93187.28;;;-0.72;67.00
45793;BME280;31495;42.740;22.908;2023-03-14T02:31:25;93186.22;;;-0.70;66.68
45793;BME280;31495;42.740;22.908;2023-03-14T02:32:26;93183.25;;;-0.65;66.45
45793;BME280;31495;42.740;22.908;2023-03-14T02:33:26;93184.34;;;-0.68;66.73
45793;BME280;31495;42.740;22.908;2023-03-14T02:34:26;93163.25;;;-0.78;66.65
45793;BME280;31495;42.740;22.908;2023-03-14T02:35:29;93181.13;;;-0.70;66.47
45793;BME280;31495;42.740;22.908;2023-03-14T02:36:30;93180.19;;;-0.69;66.43
45793;BME280;31495;42.740;22.908;2023-03-14T02:37:36;93155.03;;;-0.90;66.46
45793;BME280;31495;42.740;22.908;2023-03-14T02:38:52;93159.28;;;-0.90;66.25
45793;BME280;31495;42.740;22.908;2023-03-14T02:39:52;93142.13;;;-1.06;66.34
45793;BME280;31495;42.740;22.908;2023-03-14T02:40:52;93190.69;;;-0.82;66.60
45793;BME280;31495;42.740;22.908;2023-03-14T02:41:52;93184.78;;;-0.82;66.67
45793;BME280;31495;42.740;22.908;2023-03-14T02:42:51;93154.38;;;-1.02;66.78
45793;BME280;31495;42.740;22.908;2023-03-14T02:43:51;93157.19;;;-0.95;66.80
45793;BME280;31495;42.740;22.908;2023-03-14T02:44:59;93186.41;;;-0.81;66.77
45793;BME280;31495;42.740;22.908;2023-03-14T02:46:00;93185.75;;;-0.83;67.06
45793;BME280;31495;42.740;22.908;2023-03-14T02:47:03;93188.00;;;-0.80;67.09
45793;BME280;31495;42.740;22.908;2023-03-14T02:48:11;93172.84;;;-1.00;66.88
45793;BME280;31495;42.740;22.908;2023-03-14T02:49:14;93195.38;;;-0.87;66.93
45793;BME280;31495;42.740;22.908;2023-03-14T02:50:18;93189.63;;;-0.89;67.09
45793;BME280;31495;42.740;22.908;2023-03-14T02:51:18;93172.59;;;-1.06;67.24
45793;BME280;31495;42.740;22.908;2023-03-14T02:52:18;93192.31;;;-0.90;67.54
45793;BME280;31495;42.740;22.908;2023-03-14T02:53:21;93188.59;;;-0.96;67.94
45793;BME280;31495;42.740;22.908;2023-03-14T02:54:22;93158.59;;;-1.30;67.92
45793;BME280;31495;42.740;22.908;2023-03-14T02:55:22;93190.78;;;-1.21;68.45
45793;BME280;31495;42.740;22.908;2023-03-14T02:56:22;93156.22;;;-1.41;68.81
45793;BME280;31495;42.740;22.908;2023-03-14T02:57:21;93195.97;;;-1.13;68.10
45793;BME280;31495;42.740;22.908;2023-03-14T02:58:21;93199.19;;;-1.11;67.92
45793;BME280;31495;42.740;22.908;2023-03-14T02:59:21;93196.78;;;-1.12;67.92
45793;BME280;31495;42.740;22.908;2023-03-14T03:00:20;93155.44;;;-1.42;67.96
45793;BME280;31495;42.740;22.908;2023-03-14T03:01:20;93173.94;;;-1.22;68.00
45793;BME280;31495;42.740;22.908;2023-03-14T03:02:19;93194.47;;;-1.05;68.00
45793;BME280;31495;42.740;22.908;2023-03-14T03:03:19;93151.13;;;-1.32;67.73
45793;BME280;31495;42.740;22.908;2023-03-14T03:04:19;93184.31;;;-1.05;67.56
45793;BME280;31495;42.740;22.908;2023-03-14T03:05:18;93123.22;;;-1.41;67.33
45793;BME280;31495;42.740;22.908;2023-03-14T03:06:18;93158.56;;;-1.20;67.49
45793;BME280;31495;42.740;22.908;2023-03-14T03:07:17;93137.91;;;-1.35;67.51
45793;BME280;31495;42.740;22.908;2023-03-14T03:08:19;93176.22;;;-1.19;67.85
45793;BME280;31495;42.740;22.908;2023-03-14T03:09:19;93162.47;;;-1.26;67.89
45793;BME280;31495;42.740;22.908;2023-03-14T03:10:18;93158.34;;;-1.27;67.71
45793;BME280;31495;42.740;22.908;2023-03-14T03:11:18;93174.78;;;-1.21;68.08
45793;BME280;31495;42.740;22.908;2023-03-14T03:12:17;93195.97;;;-1.03;67.92
45793;BME280;31495;42.740;22.908;2023-03-14T03:13:17;93140.19;;;-1.42;67.88
45793;BME280;31495;42.740;22.908;2023-03-14T03:14:17;93194.75;;;-1.08;68.17
45793;BME280;31495;42.740;22.908;2023-03-14T03:15:17;93188.88;;;-1.09;67.84
45793;BME280;31495;42.740;22.908;2023-03-14T03:16:16;93197.03;;;-1.05;67.80
45793;BME280;31495;42.740;22.908;2023-03-14T03:17:16;93143.41;;;-1.40;67.93
45793;BME280;31495;42.740;22.908;2023-03-14T03:18:15;93167.28;;;-1.23;68.21
45793;BME280;31495;42.740;22.908;2023-03-14T03:19:15;93196.22;;;-1.06;68.06
45793;BME280;31495;42.740;22.908;2023-03-14T03:20:16;93196.09;;;-1.04;67.96
45793;BME280;31495;42.740;22.908;2023-03-14T03:21:15;93169.81;;;-1.23;67.84
45793;BME280;31495;42.740;22.908;2023-03-14T03:22:15;93196.78;;;-1.12;67.79
45793;BME280;31495;42.740;22.908;2023-03-14T03:23:14;93160.22;;;-1.29;67.98
45793;BME280;31495;42.740;22.908;2023-03-14T03:24:14;93159.66;;;-1.23;67.62
45793;BME280;31495;42.740;22.908;2023-03-14T03:25:13;93171.53;;;-1.23;67.61
45793;BME280;31495;42.740;22.908;2023-03-14T03:26:12;93198.25;;;-1.09;67.75
45793;BME280;31495;42.740;22.908;2023-03-14T03:27:12;93150.88;;;-1.38;68.06
45793;BME280;31495;42.740;22.908;2023-03-14T03:28:11;93191.28;;;-1.07;67.63
45793;BME280;31495;42.740;22.908;2023-03-14T03:29:11;93181.28;;;-1.19;67.46
45793;BME280;31495;42.740;22.908;2023-03-14T03:30:11;93196.66;;;-1.11;67.97
45793;BME280;31495;42.740;22.908;2023-03-14T03:31:11;93192.22;;;-1.08;67.72
45793;BME280;31495;42.740;22.908;2023-03-14T03:32:11;93198.00;;;-1.16;67.85
45793;BME280;31495;42.740;22.908;2023-03-14T03:33:11;93186.28;;;-1.37;67.94
45793;BME280;31495;42.740;22.908;2023-03-14T03:34:12;93195.22;;;-1.33;68.08
45793;BME280;31495;42.740;22.908;2023-03-14T03:35:12;93197.19;;;-1.26;68.64
45793;BME280;31495;42.740;22.908;2023-03-14T03:36:11;93196.16;;;-1.24;68.44
45793;BME280;31495;42.740;22.908;2023-03-14T03:37:11;93162.53;;;-1.45;68.08
45793;BME280;31495;42.740;22.908;2023-03-14T03:38:10;93190.16;;;-1.33;68.14
45793;BME280;31495;42.740;22.908;2023-03-14T03:39:10;93172.53;;;-1.44;68.49
45793;BME280;31495;42.740;22.908;2023-03-14T03:40:10;93203.75;;;-1.24;68.35
45793;BME280;31495;42.740;22.908;2023-03-14T03:41:10;93194.41;;;-1.23;68.41
45793;BME280;31495;42.740;22.908;2023-03-14T03:42:10;93125.94;;;-1.72;68.21
45793;BME280;31495;42.740;22.908;2023-03-14T03:43:09;93166.09;;;-1.38;67.84
45793;BME280;31495;42.740;22.908;2023-03-14T03:44:09;93114.34;;;-1.75;67.99
45793;BME280;31495;42.740;22.908;2023-03-14T03:45:09;93161.88;;;-1.48;68.03
45793;BME280;31495;42.740;22.908;2023-03-14T03:46:09;93151.16;;;-1.51;68.11
45793;BME280;31495;42.740;22.908;2023-03-14T03:47:09;93197.34;;;-1.28;68.35
45793;BME280;31495;42.740;22.908;2023-03-14T03:48:08;93194.16;;;-1.30;68.34
45793;BME280;31495;42.740;22.908;2023-03-14T03:49:07;93181.22;;;-1.46;67.68
45793;BME280;31495;42.740;22.908;2023-03-14T03:50:07;93168.94;;;-1.61;68.19
45793;BME280;31495;42.740;22.908;2023-03-14T03:51:07;93198.06;;;-1.45;68.43
45793;BME280;31495;42.740;22.908;2023-03-14T03:52:06;93159.47;;;-1.69;68.51
45793;BME280;31495;42.740;22.908;2023-03-14T03:53:05;93186.44;;;-1.58;68.06
45793;BME280;31495;42.740;22.908;2023-03-14T03:54:05;93200.06;;;-1.39;68.21
45793;BME280;31495;42.740;22.908;2023-03-14T03:55:05;93201.50;;;-1.37;68.38
45793;BME280;31495;42.740;22.908;2023-03-14T03:56:05;93150.00;;;-1.67;68.03
45793;BME280;31495;42.740;22.908;2023-03-14T03:57:04;93161.19;;;-1.59;67.91
45793;BME280;31495;42.740;22.908;2023-03-14T03:58:04;93153.72;;;-1.61;68.17
45793;BME280;31495;42.740;22.908;2023-03-14T03:59:03;93166.94;;;-1.57;68.31
45793;BME280;31495;42.740;22.908;2023-03-14T04:00:04;93175.75;;;-1.52;68.30
45793;BME280;31495;42.740;22.908;2023-03-14T04:01:05;93145.19;;;-1.70;68.64
45793;BME280;31495;42.740;22.908;2023-03-14T04:02:06;93158.91;;;-1.62;68.39
45793;BME280;31495;42.740;22.908;2023-03-14T04:03:05;93150.94;;;-1.77;68.53
45793;BME280;31495;42.740;22.908;2023-03-14T04:04:05;93158.16;;;-1.82;68.46
45793;BME280;31495;42.740;22.908;2023-03-14T04:05:05;93171.34;;;-1.79;69.14
45793;BME280;31495;42.740;22.908;2023-03-14T04:06:07;93183.91;;;-1.68;69.02
45793;BME280;31495;42.740;22.908;2023-03-14T04:07:07;93138.00;;;-2.04;69.13
45793;BME280;31495;42.740;22.908;2023-03-14T04:08:06;93182.06;;;-1.75;68.92
45793;BME280;31495;42.740;22.908;2023-03-14T04:09:05;93122.66;;;-2.12;68.88
45793;BME280;31495;42.740;22.908;2023-03-14T04:10:05;93114.50;;;-2.15;69.14
45793;BME280;31495;42.740;22.908;2023-03-14T04:11:05;93165.75;;;-1.73;68.56
45793;BME280;31495;42.740;22.908;2023-03-14T04:12:04;93173.34;;;-1.73;68.75
45793;BME280;31495;42.740;22.908;2023-03-14T04:13:04;93162.81;;;-1.68;68.80
45793;BME280;31495;42.740;22.908;2023-03-14T04:14:04;93173.63;;;-1.66;68.90
45793;BME280;31495;42.740;22.908;2023-03-14T04:15:04;93162.03;;;-1.78;68.80
45793;BME280;31495;42.740;22.908;2023-03-14T04:16:11;93159.34;;;-1.87;69.27
45793;BME280;31495;42.740;22.908;2023-03-14T04:17:13;93151.75;;;-1.87;69.11
45793;BME280;31495;42.740;22.908;2023-03-14T04:18:12;93174.97;;;-1.72;69.14
45793;BME280;31495;42.740;22.908;2023-03-14T04:19:12;93179.22;;;-1.72;69.11
45793;BME280;31495;42.740;22.908;2023-03-14T04:20:12;93160.94;;;-1.86;69.35
45793;BME280;31495;42.740;22.908;2023-03-14T04:21:11;93175.75;;;-1.71;68.95
45793;BME280;31495;42.740;22.908;2023-03-14T04:22:11;93145.84;;;-1.87;68.67
45793;BME280;31495;42.740;22.908;2023-03-14T04:23:11;93172.81;;;-1.67;69.19
45793;BME280;31495;42.740;22.908;2023-03-14T04:24:10;93174.72;;;-1.69;68.97
45793;BME280;31495;42.740;22.908;2023-03-14T04:25:10;93151.50;;;-1.83;68.86
45793;BME280;31495;42.740;22.908;2023-03-14T04:26:09;93156.25;;;-1.80;68.65
45793;BME280;31495;42.740;22.908;2023-03-14T04:27:08;93170.81;;;-1.73;68.73
45793;BME280;31495;42.740;22.908;2023-03-14T04:28:08;93170.16;;;-1.75;68.93
45793;BME280;31495;42.740;22.908;2023-03-14T04:29:07;93146.81;;;-1.88;68.82
45793;BME280;31495;42.740;22.908;2023-03-14T04:30:07;93165.47;;;-1.79;68.79
45793;BME280;31495;42.740;22.908;2023-03-14T04:31:12;93162.69;;;-1.76;69.09
45793;BME280;31495;42.740;22.908;2023-03-14T04:32:12;93126.78;;;-2.01;69.12
45793;BME280;31495;42.740;22.908;2023-03-14T04:33:11;93157.88;;;-1.89;68.73
45793;BME280;31495;42.740;22.908;2023-03-14T04:34:14;93118.91;;;-2.08;68.87
45793;BME280;31495;42.740;22.908;2023-03-14T04:35:14;93155.75;;;-1.84;69.20
45793;BME280;31495;42.740;22.908;2023-03-14T04:36:14;93149.34;;;-1.88;68.52
45793;BME280;31495;42.740;22.908;2023-03-14T04:37:13;93136.13;;;-1.92;68.81
45793;BME280;31495;42.740;22.908;2023-03-14T04:38:13;93148.13;;;-1.84;68.67
45793;BME280;31495;42.740;22.908;2023-03-14T04:39:13;93160.53;;;-1.81;68.78
45793;BME280;31495;42.740;22.908;2023-03-14T04:40:12;93138.81;;;-2.03;69.13
45793;BME280;31495;42.740;22.908;2023-03-14T04:41:12;93140.00;;;-2.07;69.60
45793;BME280;31495;42.740;22.908;2023-03-14T04:42:11;93110.53;;;-2.18;69.39
45793;BME280;31495;42.740;22.908;2023-03-14T04:43:11;93152.69;;;-1.97;69.51
45793;BME280;31495;42.740;22.908;2023-03-14T04:44:11;93154.41;;;-1.98;69.46
45793;BME280;31495;42.740;22.908;2023-03-14T04:45:10;93109.56;;;-2.36;69.38
45793;BME280;31495;42.740;22.908;2023-03-14T04:46:10;93152.53;;;-1.96;69.31
45793;BME280;31495;42.740;22.908;2023-03-14T04:47:09;93156.69;;;-1.95;69.65
45793;BME280;31495;42.740;22.908;2023-03-14T04:48:09;93132.91;;;-2.13;69.05
45793;BME280;31495;42.740;22.908;2023-03-14T04:49:09;93150.81;;;-1.95;69.46
45793;BME280;31495;42.740;22.908;2023-03-14T04:50:09;93158.16;;;-2.02;69.42
45793;BME280;31495;42.740;22.908;2023-03-14T04:51:09;93161.63;;;-2.03;69.27
45793;BME280;31495;42.740;22.908;2023-03-14T04:52:08;93155.06;;;-2.06;69.54
45793;BME280;31495;42.740;22.908;2023-03-14T04:53:08;93135.06;;;-2.18;69.49
45793;BME280;31495;42.740;22.908;2023-03-14T04:54:08;93151.75;;;-2.06;69.63
45793;BME280;31495;42.740;22.908;2023-03-14T04:55:07;93120.66;;;-2.18;69.45
45793;BME280;31495;42.740;22.908;2023-03-14T04:56:07;93084.34;;;-2.38;69.34
45793;BME280;31495;42.740;22.908;2023-03-14T04:57:07;93115.16;;;-2.13;69.59
45793;BME280;31495;42.740;22.908;2023-03-14T04:58:06;93144.28;;;-1.88;69.12
45793;BME280;31495;42.740;22.908;2023-03-14T04:59:05;93134.66;;;-1.94;69.25
45793;BME280;31495;42.740;22.908;2023-03-14T05:00:06;93135.59;;;-1.95;69.16
45793;BME280;31495;42.740;22.908;2023-03-14T05:01:06;93118.09;;;-1.98;69.31
45793;BME280;31495;42.740;22.908;2023-03-14T05:02:06;93095.03;;;-2.15;69.48
45793;BME280;31495;42.740;22.908;2023-03-14T05:03:05;93058.75;;;-2.35;69.57
45793;BME280;31495;42.740;22.908;2023-03-14T05:04:05;93142.66;;;-1.89;69.64
45793;BME280;31495;42.740;22.908;2023-03-14T05:05:05;93097.84;;;-2.28;69.50
45793;BME280;31495;42.740;22.908;2023-03-14T05:06:04;93146.81;;;-1.98;69.75
45793;BME280;31495;42.740;22.908;2023-03-14T05:07:04;93127.06;;;-2.14;69.93
45793;BME280;31495;42.740;22.908;2023-03-14T05:08:03;93096.09;;;-2.37;69.90
45793;BME280;31495;42.740;22.908;2023-03-14T05:09:03;93146.41;;;-2.03;70.09
45793;BME280;31495;42.740;22.908;2023-03-14T05:10:04;93123.72;;;-2.24;70.09
45793;BME280;31495;42.740;22.908;2023-03-14T05:11:04;93147.88;;;-2.10;70.24
45793;BME280;31495;42.740;22.908;2023-03-14T05:12:04;93089.53;;;-2.49;70.37
45793;BME280;31495;42.740;22.908;2023-03-14T05:13:04;93107.44;;;-2.31;70.33
45793;BME280;31495;42.740;22.908;2023-03-14T05:14:03;93126.91;;;-2.22;70.47
45793;BME280;31495;42.740;22.908;2023-03-14T05:15:03;93143.47;;;-2.08;70.59
45793;BME280;31495;42.740;22.908;2023-03-14T05:16:09;93092.91;;;-2.39;70.70
45793;BME280;31495;42.740;22.908;2023-03-14T05:17:09;93119.72;;;-2.17;70.25
45793;BME280;31495;42.740;22.908;2023-03-14T05:18:08;93149.63;;;-1.91;70.24
45793;BME280;31495;42.740;22.908;2023-03-14T05:19:08;93118.41;;;-2.11;70.37
45793;BME280;31495;42.740;22.908;2023-03-14T05:20:08;93129.31;;;-2.11;70.20
45793;BME280;31495;42.740;22.908;2023-03-14T05:21:08;93149.88;;;-1.94;70.25
45793;BME280;31495;42.740;22.908;2023-03-14T05:22:08;93149.75;;;-1.93;70.38
45793;BME280;31495;42.740;22.908;2023-03-14T05:23:07;93143.47;;;-1.98;70.21
45793;BME280;31495;42.740;22.908;2023-03-14T05:24:07;93150.81;;;-1.95;70.41
45793;BME280;31495;42.740;22.908;2023-03-14T05:25:07;93120.78;;;-2.19;70.40
45793;BME280;31495;42.740;22.908;2023-03-14T05:26:07;93142.28;;;-1.94;70.67